createdAt,value
2022-12-03T00:01:49.526Z,96234.13
2022-12-03T04:07:58.903Z,96256.75
2022-12-03T04:10:25.369Z,96250.69
2022-12-03T04:12:51.743Z,96241.63
2022-12-03T04:15:18.115Z,96250.69
2022-12-03T04:17:44.466Z,96242.72
2022-12-03T04:20:10.873Z,96246.91
2022-12-03T04:22:37.237Z,96250.69
2022-12-03T04:25:03.615Z,96240.84
2022-12-03T04:27:30.071Z,96247.38
2022-12-03T04:29:56.430Z,96246.91
2022-12-03T04:32:22.802Z,96250.34
2022-12-03T04:34:49.189Z,96259.53
2022-12-03T04:37:15.561Z,96258.63
2022-12-03T04:39:41.925Z,96251.78
2022-12-03T04:42:08.322Z,96248.16
2022-12-03T04:44:34.699Z,96260.63
2022-12-03T04:47:01.066Z,96262.06
2022-12-03T04:49:27.455Z,96264.81
2022-12-03T04:51:53.858Z,96272.00
2022-12-03T04:54:20.236Z,96271.66
2022-12-03T04:56:46.606Z,96282.28
2022-12-03T04:59:16.355Z,96274.75
2022-12-03T05:01:43.179Z,96281.50
2022-12-03T05:04:09.578Z,96279.28
2022-12-03T05:06:35.962Z,96278.84
2022-12-03T05:09:02.335Z,96275.09
2022-12-03T05:11:28.703Z,96273.88
2022-12-03T05:13:55.086Z,96274.50
2022-12-03T05:16:21.502Z,96271.31
2022-12-03T05:18:47.947Z,96278.53
2022-12-03T05:21:14.307Z,96276.75
2022-12-03T05:23:40.667Z,96269.03
2022-12-03T05:26:07.034Z,96268.34
2022-12-03T05:28:33.388Z,96267.56
2022-12-03T05:30:59.908Z,96260.38
2022-12-03T05:33:26.318Z,96266.56
2022-12-03T05:35:52.695Z,96266.13
2022-12-03T05:38:19.063Z,96274.88
2022-12-03T05:40:45.419Z,96252.56
2022-12-03T05:43:11.819Z,96247.59
2022-12-03T05:45:38.176Z,96250.78
2022-12-03T05:48:04.537Z,96254.84
2022-12-03T05:50:30.918Z,96250.31
2022-12-03T05:52:57.298Z,96258.72
2022-12-03T05:55:23.656Z,96254.19
2022-12-03T05:57:50.038Z,96249.22
2022-12-03T06:00:16.428Z,96242.13
2022-12-03T06:02:42.894Z,96241.03
2022-12-03T06:05:09.362Z,96242.91
2022-12-03T06:07:35.820Z,96244.47
2022-12-03T06:10:02.213Z,96251.97
2022-12-03T06:12:28.582Z,96239.06
2022-12-03T06:14:55.352Z,96235.28
2022-12-03T06:17:21.947Z,96238.84
2022-12-03T06:19:48.302Z,96243.03
2022-12-03T06:22:14.666Z,96239.59
2022-12-03T06:24:41.039Z,96233.41
2022-12-03T06:27:07.413Z,96231.22
2022-12-03T06:29:33.815Z,96239.94
2022-12-03T06:32:00.247Z,96242.59
2022-12-03T06:34:26.662Z,96241.81
2022-12-03T06:36:53.135Z,96238.50
2022-12-03T06:39:19.494Z,96243.44
2022-12-03T06:41:45.886Z,96239.59
2022-12-03T06:44:12.250Z,96242.34
2022-12-03T06:46:38.824Z,96243.66
2022-12-03T06:49:05.234Z,96245.31
2022-12-03T06:51:31.598Z,96247.41
2022-12-03T06:53:57.975Z,96242.09
2022-12-03T06:56:25.126Z,96247.84
2022-12-03T06:58:52.873Z,96252.47
2022-12-03T07:01:19.263Z,96253.81
2022-12-03T07:03:45.719Z,96258.34
2022-12-03T07:06:12.114Z,96259.47
2022-12-03T07:08:38.485Z,96262.66
2022-12-03T07:11:04.842Z,96258.56
2022-12-03T07:13:31.221Z,96262.50
2022-12-03T07:15:57.660Z,96261.66
2022-12-03T07:18:24.094Z,96253.94
2022-12-03T07:20:50.450Z,96261.78
2022-12-03T07:23:16.829Z,96260.78
2022-12-03T07:25:43.189Z,96267.28
2022-12-03T07:28:09.552Z,96263.53
2022-12-03T07:30:35.924Z,96269.59
2022-12-03T07:33:02.344Z,96275.25
2022-12-03T07:35:28.718Z,96266.19
2022-12-03T07:37:55.102Z,96267.81
2022-12-03T07:40:21.470Z,96262.63
2022-12-03T07:42:47.858Z,96274.66
2022-12-03T07:45:14.218Z,96265.28
2022-12-03T07:47:40.579Z,96265.81
2022-12-03T07:50:06.942Z,96253.53
2022-12-03T07:52:33.299Z,96256.31
2022-12-03T07:54:59.679Z,96255.28
2022-12-03T07:57:26.063Z,96257.84
2022-12-03T07:59:52.422Z,96267.53
2022-12-03T08:02:21.679Z,96257.63
2022-12-03T08:04:48.414Z,96247.34
2022-12-03T08:07:14.774Z,96249.22
2022-12-03T08:09:41.150Z,96243.91
2022-12-03T08:12:07.543Z,96243.03
2022-12-03T08:14:33.905Z,96246.31
2022-12-03T08:17:00.254Z,96248.78
2022-12-03T08:19:26.638Z,96251.53
2022-12-03T08:21:56.608Z,96246.00
2022-12-03T08:24:27.363Z,96241.13
2022-12-03T08:26:53.729Z,96250.28
2022-12-03T08:29:20.121Z,96244.09
2022-12-03T08:31:46.530Z,96240.34
2022-12-03T08:34:12.909Z,96239.41
2022-12-03T08:36:39.270Z,96241.88
2022-12-03T08:39:05.655Z,96237.34
2022-12-03T08:41:32.035Z,96241.22
2022-12-03T08:43:58.403Z,96242.50
2022-12-03T08:46:24.818Z,96227.94
2022-12-03T08:48:51.232Z,96217.00
2022-12-03T08:51:17.645Z,96220.84
2022-12-03T08:53:44.031Z,96222.13
2022-12-03T08:56:10.402Z,96215.19
2022-12-03T08:58:36.784Z,96214.63
2022-12-03T09:01:03.190Z,96211.97
2022-12-03T09:03:29.611Z,96219.16
2022-12-03T09:05:55.967Z,96217.34
2022-12-03T09:08:22.342Z,96227.13
2022-12-03T09:10:48.703Z,96223.34
2022-12-03T09:13:15.063Z,96231.91
2022-12-03T09:15:41.432Z,96231.41
2022-12-03T09:18:07.853Z,96227.72
2022-12-03T09:20:34.233Z,96227.97
2022-12-03T09:23:00.599Z,96229.53
2022-12-03T09:25:26.960Z,96226.09
2022-12-03T09:27:53.330Z,96225.66
2022-12-03T09:30:19.699Z,96222.66
2022-12-03T09:32:46.075Z,96225.06
2022-12-03T09:35:12.436Z,96227.63
2022-12-03T09:37:38.903Z,96229.59
2022-12-03T09:40:05.280Z,96234.91
2022-12-03T09:42:31.655Z,96229.97
2022-12-03T09:44:58.041Z,96217.88
2022-12-03T09:47:24.414Z,96212.50
2022-12-03T09:49:50.865Z,96213.00
2022-12-03T09:52:17.494Z,96215.22
2022-12-03T09:54:47.290Z,96198.53
2022-12-03T09:57:13.999Z,96208.38
2022-12-03T09:59:40.388Z,96209.84
2022-12-03T10:02:06.826Z,96203.97
2022-12-03T10:04:33.319Z,96213.78
2022-12-03T10:06:59.767Z,96207.63
2022-12-03T10:09:26.138Z,96204.19
2022-12-03T10:11:52.519Z,96200.78
2022-12-03T10:14:18.892Z,96205.31
2022-12-03T10:16:45.352Z,96202.88
2022-12-03T10:19:11.786Z,96202.72
2022-12-03T10:21:38.156Z,96205.03
2022-12-03T10:24:04.534Z,96204.03
2022-12-03T10:26:30.935Z,96209.28
2022-12-03T10:28:57.299Z,96208.47
2022-12-03T10:31:23.715Z,96197.41
2022-12-03T10:33:50.158Z,96194.53
2022-12-03T10:36:16.544Z,96197.75
2022-12-03T10:38:42.925Z,96195.53
2022-12-03T10:41:09.302Z,96193.22
2022-12-03T10:43:35.800Z,96192.66
2022-12-03T10:46:04.514Z,96190.34
2022-12-03T10:48:31.249Z,96196.31
2022-12-03T10:50:57.624Z,96194.97
2022-12-03T10:53:24.121Z,96209.69
2022-12-03T10:55:50.475Z,96198.88
2022-12-03T10:58:16.844Z,96180.09
2022-12-03T11:00:43.226Z,96172.91
2022-12-03T11:03:09.630Z,96172.56
2022-12-03T11:05:36.010Z,96172.06
2022-12-03T11:08:02.421Z,96164.59
2022-12-03T11:10:28.843Z,96158.78
2022-12-03T11:12:55.225Z,96160.84
2022-12-03T11:15:21.595Z,96160.09
2022-12-03T11:17:47.991Z,96160.53
2022-12-03T11:20:19.440Z,96156.75
2022-12-03T11:22:48.680Z,96150.69
2022-12-03T11:25:15.064Z,96145.03
2022-12-03T11:27:41.444Z,96132.94
2022-12-03T11:30:07.803Z,96130.06
2022-12-03T11:32:34.271Z,96121.69
2022-12-03T11:35:00.663Z,96119.81
2022-12-03T11:37:27.044Z,96124.34
2022-12-03T11:39:53.791Z,96132.31
2022-12-03T11:42:20.382Z,96141.56
2022-12-03T11:44:46.760Z,96133.38
2022-12-03T11:47:13.135Z,96129.72
2022-12-03T11:49:39.504Z,96121.69
2022-12-03T11:52:05.903Z,96124.09
2022-12-03T11:54:32.289Z,96117.16
2022-12-03T11:56:58.679Z,96116.38
2022-12-03T11:59:25.051Z,96125.53
2022-12-03T12:01:51.447Z,96132.06
2022-12-03T12:04:17.864Z,96123.81
2022-12-03T12:06:44.259Z,96121.88
2022-12-03T12:09:10.652Z,96113.47
2022-12-03T12:11:37.029Z,96108.16
2022-12-03T12:14:04.765Z,96108.50
2022-12-03T12:16:31.615Z,96103.78
2022-12-03T12:18:58.079Z,96103.28
2022-12-03T12:21:24.590Z,96103.28
2022-12-03T12:23:52.246Z,96110.03
2022-12-03T12:26:18.947Z,96123.31
2022-12-03T12:28:45.786Z,96120.84
2022-12-03T12:31:12.622Z,96120.13
2022-12-03T12:33:39.133Z,96118.94
2022-12-03T12:36:05.918Z,96117.06
2022-12-03T12:38:33.228Z,96104.47
2022-12-03T12:40:59.722Z,96102.59
2022-12-03T12:43:27.408Z,96109.34
2022-12-03T12:45:55.112Z,96110.47
2022-12-03T12:48:21.626Z,96107.13
2022-12-03T12:50:48.066Z,96116.28
2022-12-03T12:53:14.594Z,96094.28
2022-12-03T12:55:42.255Z,96090.94
2022-12-03T12:58:09.955Z,96095.41
2022-12-03T13:00:36.412Z,96092.91
2022-12-03T13:03:02.815Z,96087.88
2022-12-03T13:05:29.218Z,96078.97
2022-12-03T13:07:55.665Z,96087.38
2022-12-03T13:10:22.063Z,96082.06
2022-12-03T13:12:48.440Z,96080.06
2022-12-03T13:15:14.823Z,96077.66
2022-12-03T13:17:41.193Z,96064.06
2022-12-03T13:20:08.320Z,96074.59
2022-12-03T13:22:34.758Z,96068.94
2022-12-03T13:25:01.147Z,96076.56
2022-12-03T13:27:27.533Z,96057.19
2022-12-03T13:29:54.122Z,96049.94
2022-12-03T13:32:20.771Z,96053.00
2022-12-03T13:34:47.203Z,96046.41
2022-12-03T13:37:13.583Z,96049.16
2022-12-03T13:39:39.970Z,96046.41
2022-12-03T13:42:06.363Z,96047.63
2022-12-03T13:44:32.738Z,96045.75
2022-12-03T13:46:59.125Z,96038.81
2022-12-03T13:49:25.517Z,96039.66
2022-12-03T13:51:51.896Z,96035.53
2022-12-03T13:54:18.377Z,96031.25
2022-12-03T13:56:44.768Z,96028.97
2022-12-03T13:59:11.159Z,96041.47
2022-12-03T14:01:37.711Z,96033.13
2022-12-03T14:04:04.164Z,96037.44
2022-12-03T14:06:30.539Z,96036.47
2022-12-03T14:08:56.914Z,96038.28
2022-12-03T14:11:23.336Z,96041.34
2022-12-03T14:13:49.702Z,96034.84
2022-12-03T14:16:16.135Z,96036.78
2022-12-03T14:18:42.557Z,96036.94
2022-12-03T14:21:08.948Z,96037.44
2022-12-03T14:23:35.336Z,96049.06
2022-12-03T14:26:01.721Z,96043.09
2022-12-03T14:28:28.092Z,96052.16
2022-12-03T14:30:54.482Z,96051.38
2022-12-03T14:33:20.855Z,96044.97
2022-12-03T14:35:47.259Z,96049.16
2022-12-03T14:38:13.645Z,96050.28
2022-12-03T14:40:40.021Z,96058.66
2022-12-03T14:43:06.394Z,96056.09
2022-12-03T14:45:32.804Z,96054.09
2022-12-03T14:47:59.204Z,96061.41
2022-12-03T14:50:25.608Z,96056.41
2022-12-03T14:52:51.994Z,96055.50
2022-12-03T14:55:18.383Z,96054.97
2022-12-03T14:57:44.752Z,96055.31
2022-12-03T15:00:11.153Z,96044.69
2022-12-03T15:02:37.596Z,96043.75
2022-12-03T15:05:04.028Z,96047.63
2022-12-03T15:07:30.437Z,96049.78
2022-12-03T15:09:57.147Z,96050.81
2022-12-03T15:12:23.729Z,96046.34
2022-12-03T15:14:50.179Z,96045.56
2022-12-03T15:17:16.615Z,96047.78
2022-12-03T15:19:43.015Z,96034.19
2022-12-03T15:22:09.407Z,96025.03
2022-12-03T15:24:35.771Z,96021.63
2022-12-03T15:27:02.156Z,96026.66
2022-12-03T15:29:28.546Z,96023.66
2022-12-03T15:31:55.021Z,96021.84
2022-12-03T15:34:23.083Z,96022.69
2022-12-03T15:36:49.743Z,96020.47
2022-12-03T15:39:16.147Z,96029.56
2022-12-03T15:41:42.510Z,96027.69
2022-12-03T15:44:08.890Z,96020.13
2022-12-03T15:46:35.343Z,96023.81
2022-12-03T15:49:01.838Z,96020.84
2022-12-03T15:51:28.235Z,96027.31
2022-12-03T15:53:54.621Z,96017.50
2022-12-03T15:56:20.993Z,96023.50
2022-12-03T15:58:47.459Z,96021.75
2022-12-03T16:01:14.009Z,96024.00
2022-12-03T16:03:40.488Z,96021.50
2022-12-03T16:06:06.868Z,96024.41
2022-12-03T16:08:33.350Z,96021.34
2022-12-03T16:10:59.730Z,96025.88
2022-12-03T16:13:26.120Z,96025.69
2022-12-03T16:15:52.555Z,96025.03
2022-12-03T16:18:18.960Z,96032.22
2022-12-03T16:20:45.327Z,96034.53
2022-12-03T16:23:11.720Z,96029.56
2022-12-03T16:25:38.097Z,96035.53
2022-12-03T16:28:04.468Z,96029.81
2022-12-03T16:30:30.839Z,96033.97
2022-12-03T16:32:57.205Z,96035.19
2022-12-03T16:35:23.590Z,96034.13
2022-12-03T16:37:49.984Z,96028.00
2022-12-03T16:40:16.353Z,96032.63
2022-12-03T16:42:42.739Z,96034.53
2022-12-03T16:45:09.150Z,96025.03
2022-12-03T16:47:35.519Z,96027.00
2022-12-03T16:50:02.272Z,96026.47
2022-12-03T16:52:28.719Z,96026.56
2022-12-03T16:54:55.112Z,96020.38
2022-12-03T16:57:21.483Z,96020.38
2022-12-03T16:59:47.859Z,96017.09
2022-12-03T17:02:14.514Z,96019.38
2022-12-03T17:04:41.038Z,96020.84
2022-12-03T17:07:07.422Z,96012.09
2022-12-03T17:09:33.807Z,96016.97
2022-12-03T17:12:00.198Z,96018.25
2022-12-03T17:14:31.580Z,96013.53
2022-12-03T17:16:59.589Z,96012.50
2022-12-03T17:19:25.958Z,96019.28
2022-12-03T17:21:52.485Z,96015.94
2022-12-03T17:24:18.871Z,96016.19
2022-12-03T17:26:45.263Z,96013.72
2022-12-03T17:29:11.649Z,96011.66
2022-12-03T17:31:41.965Z,96006.78
2022-12-03T17:34:09.035Z,96012.94
2022-12-03T17:36:35.402Z,96005.75
2022-12-03T17:39:01.777Z,96004.91
2022-12-03T17:41:28.154Z,96005.69
2022-12-03T17:43:54.534Z,95999.50
2022-12-03T17:46:20.959Z,96004.91
2022-12-03T17:48:47.414Z,96001.22
2022-12-03T17:51:13.821Z,96006.47
2022-12-03T17:53:40.187Z,96003.88
2022-12-03T17:56:06.587Z,96005.41
2022-12-03T17:58:32.981Z,95998.22
2022-12-03T18:01:02.824Z,96000.53
2022-12-03T18:03:29.680Z,96004.56
2022-12-03T18:05:56.119Z,96007.22
2022-12-03T18:08:22.584Z,96009.00
2022-12-03T18:10:49.020Z,96006.78
2022-12-03T18:13:15.399Z,96008.75
2022-12-03T18:15:41.869Z,96007.31
2022-12-03T18:18:08.290Z,96010.28
2022-12-03T18:20:34.667Z,96011.78
2022-12-03T18:23:01.033Z,96009.97
2022-12-03T18:25:27.406Z,96011.06
2022-12-03T18:27:53.792Z,96012.88
2022-12-03T18:30:20.165Z,96005.56
2022-12-03T18:32:46.572Z,95999.25
2022-12-03T18:35:12.965Z,95994.19
2022-12-03T18:37:39.331Z,96001.38
2022-12-03T18:40:12.685Z,96008.59
2022-12-03T18:42:39.634Z,96005.50
2022-12-03T18:45:06.029Z,95995.38
2022-12-03T18:47:32.492Z,95985.03
2022-12-03T18:49:59.204Z,95998.66
2022-12-03T18:52:25.727Z,96001.72
2022-12-03T18:54:52.107Z,95996.06
2022-12-03T18:57:18.476Z,95996.50
2022-12-03T18:59:44.863Z,95991.97
2022-12-03T19:02:11.644Z,95997.03
2022-12-03T19:04:39.418Z,95993.84
2022-12-03T19:07:05.817Z,96002.28
2022-12-03T19:09:32.203Z,95999.50
2022-12-03T19:11:58.571Z,95989.56
2022-12-03T19:14:24.954Z,95993.78
2022-12-03T19:16:51.396Z,95994.63
2022-12-03T19:19:18.425Z,95987.63
2022-12-03T19:21:44.798Z,95990.28
2022-12-03T19:24:26.524Z,95989.00
2022-12-03T19:26:52.946Z,95996.16
2022-12-03T19:29:19.372Z,95991.97
2022-12-03T19:31:45.874Z,95986.34
2022-12-03T19:34:12.311Z,95984.88
2022-12-03T19:36:38.695Z,95995.47
2022-12-03T19:39:05.107Z,95980.13
2022-12-03T19:41:31.497Z,95982.47
2022-12-03T19:43:57.873Z,95993.84
2022-12-03T19:46:24.366Z,95994.31
2022-12-03T19:48:50.831Z,95994.72
2022-12-03T19:51:33.710Z,95978.19
2022-12-03T19:54:01.329Z,95986.94
2022-12-03T19:56:27.696Z,95979.47
2022-12-03T19:58:54.096Z,95976.50
2022-12-03T20:01:20.573Z,95991.53
2022-12-03T20:03:47.008Z,95994.53
2022-12-03T20:06:13.395Z,95992.56
2022-12-03T20:08:39.786Z,95988.03
2022-12-03T20:11:06.159Z,95990.53
2022-12-03T20:13:36.448Z,95990.34
2022-12-03T20:16:03.098Z,95981.28
2022-12-03T20:18:29.531Z,95987.69
2022-12-03T20:20:55.929Z,95988.47
2022-12-03T20:23:22.309Z,95979.31
2022-12-03T20:25:48.725Z,95985.38
2022-12-03T20:28:15.110Z,95986.16
2022-12-03T20:30:41.487Z,95976.66
2022-12-03T20:33:07.876Z,95980.50
2022-12-03T20:35:34.265Z,95981.28
2022-12-03T20:38:00.657Z,95982.06
2022-12-03T20:40:27.041Z,95989.00
2022-12-03T20:42:53.410Z,95991.91
2022-12-03T20:45:19.795Z,95990.69
2022-12-03T20:47:46.190Z,95982.38
2022-12-03T20:50:12.564Z,95972.38
2022-12-03T20:52:38.929Z,95981.63
2022-12-03T20:55:05.315Z,95979.72
2022-12-03T20:57:31.692Z,95978.53
2022-12-03T20:59:58.070Z,95969.78
2022-12-03T21:02:24.524Z,95969.41
2022-12-03T21:04:50.987Z,95977.75
2022-12-03T21:07:17.358Z,95978.47
2022-12-03T21:09:43.786Z,95974.69
2022-12-03T21:12:10.151Z,95983.44
2022-12-03T21:14:36.546Z,95979.13
2022-12-03T21:17:10.240Z,95978.72
2022-12-03T21:19:36.751Z,95976.59
2022-12-03T21:22:03.150Z,95971.94
2022-12-03T21:24:29.533Z,95974.97
2022-12-03T21:26:55.930Z,95975.38
2022-12-03T21:29:22.322Z,95976.16
2022-12-03T21:31:48.698Z,95981.78
2022-12-03T21:34:15.070Z,95985.22
2022-12-03T21:36:41.440Z,95989.75
2022-12-03T21:39:07.826Z,96001.06
2022-12-03T21:41:34.230Z,95991.22
2022-12-03T21:44:00.627Z,96001.50
2022-12-03T21:47:11.391Z,96002.25
2022-12-03T21:49:13.356Z,96000.38
2022-12-03T21:51:39.757Z,96006.53
2022-12-03T21:54:06.147Z,96004.28
2022-12-03T21:56:32.537Z,96014.50
2022-12-03T21:58:58.922Z,96013.38
2022-12-03T22:01:25.389Z,96011.47
2022-12-03T22:03:51.937Z,96007.66
2022-12-03T22:06:18.318Z,96005.00
2022-12-03T22:08:44.698Z,96009.09
2022-12-03T22:11:11.086Z,96001.50
2022-12-03T22:13:37.462Z,96003.13
2022-12-03T22:16:03.861Z,96005.00
2022-12-03T22:18:30.286Z,96012.63
2022-12-03T22:20:56.667Z,96004.91
2022-12-03T22:23:23.038Z,96014.00
2022-12-03T22:25:49.429Z,96019.81
2022-12-03T22:28:15.823Z,96020.22
2022-12-03T22:30:42.285Z,96017.94
2022-12-03T22:33:08.707Z,96019.38
2022-12-03T22:35:35.078Z,96010.22
2022-12-03T22:38:01.450Z,95999.25
2022-12-03T22:40:27.827Z,96000.88
2022-12-03T22:42:54.207Z,96000.88
2022-12-03T22:45:20.575Z,95995.81
2022-12-03T22:47:46.950Z,95990.19
2022-12-03T22:50:13.339Z,95992.13
2022-12-03T22:52:39.724Z,95989.84
2022-12-03T22:55:06.121Z,95985.66
2022-12-03T22:57:32.486Z,95983.69
2022-12-03T22:59:58.881Z,95975.72
2022-12-03T23:02:25.322Z,95971.88
2022-12-03T23:04:51.775Z,95964.00
2022-12-03T23:07:18.165Z,95968.63
2022-12-03T23:09:44.554Z,95957.22
2022-12-03T23:12:10.919Z,95967.06
2022-12-03T23:14:37.295Z,95957.91
2022-12-03T23:17:03.685Z,95953.03
2022-12-03T23:19:30.193Z,95939.34
2022-12-03T23:21:56.584Z,95944.66
2022-12-03T23:24:22.969Z,95935.16
2022-12-03T23:26:49.367Z,95948.44
2022-12-03T23:29:15.734Z,95937.56
2022-12-03T23:31:42.226Z,95939.78
2022-12-03T23:34:08.652Z,95941.66
2022-12-03T23:36:35.051Z,95936.69
2022-12-03T23:39:01.442Z,95939.78
2022-12-03T23:41:27.830Z,95937.47
2022-12-03T23:43:54.232Z,95941.59
2022-12-03T23:46:20.712Z,95951.69
2022-12-03T23:48:47.134Z,95955.19
2022-12-03T23:51:13.518Z,95958.19
2022-12-03T23:53:39.907Z,95952.47
2022-12-03T23:56:06.298Z,95947.06
2022-12-03T23:58:32.701Z,95943.66
